Time;durP1;ratioP1;P1;durP2;ratioP2;P2;SDS_P1;SDS_P2;PMS_P1;PMS_P2;Temp;Humidity;BMP_temperature;BMP_pressure;BME280_temperature;BME280_humidity;BME280_pressure;Samples;Min_cycle;Max_cycle;Signal;HPM_P1;HPM_P2
2023/06/30 00:04:52;;;;;;;5.00;4.60;;;;;;;13.70;74.86;99111.51;430614;1271;139497;-67
2023/06/30 00:15:16;;;;;;;5.20;3.20;;;;;;;13.59;75.49;99107.27;430598;1273;140885;-68
2023/06/30 00:25:40;;;;;;;4.60;4.10;;;;;;;13.53;75.91;99106.23;430506;1270;139866;-67
2023/06/30 00:36:05;;;;;;;4.30;3.80;;;;;;;13.40;76.45;99097.09;430559;1268;140462;-67
2023/06/30 00:46:29;;;;;;;5.60;3.80;;;;;;;13.26;76.67;99096.09;430615;1268;139157;-67
2023/06/30 00:56:53;;;;;;;4.90;3.60;;;;;;;13.13;77.31;99085.59;430740;1272;139296;-68
2023/06/30 01:07:23;;;;;;;4.10;3.30;;;;;;;13.02;77.61;99079.41;430935;1268;140249;-67
2023/06/30 01:17:52;;;;;;;4.50;3.50;;;;;;;12.88;78.12;99072.70;431193;1270;139774;-67
2023/06/30 01:28:18;;;;;;;6.20;4.20;;;;;;;12.76;78.55;99065.89;431001;1270;139725;-67
2023/06/30 01:38:43;;;;;;;4.10;3.80;;;;;;;12.64;78.94;99060.72;430942;1269;139939;-68
2023/06/30 01:49:10;;;;;;;6.50;3.80;;;;;;;12.54;79.22;99053.83;431900;1267;140218;-67
2023/06/30 01:59:35;;;;;;;6.20;4.70;;;;;;;12.46;79.49;99054.41;431087;1272;139248;-68
2023/06/30 02:09:59;;;;;;;7.40;3.90;;;;;;;12.41;79.86;99054.16;430892;1267;139701;-67
2023/06/30 02:20:24;;;;;;;5.00;4.00;;;;;;;12.32;80.00;99049.41;431259;1272;142754;-68
2023/06/30 02:30:48;;;;;;;8.40;5.50;;;;;;;12.31;80.82;99047.06;431448;1267;139890;-67
2023/06/30 02:41:12;;;;;;;6.20;5.40;;;;;;;12.38;81.60;99041.23;430825;1272;139697;-68
2023/06/30 02:51:37;;;;;;;6.00;5.00;;;;;;;12.49;81.26;99037.89;430787;1270;140341;-68
2023/06/30 03:02:02;;;;;;;6.70;5.60;;;;;;;12.99;81.45;99040.81;431001;1267;140719;-68
2023/06/30 03:12:27;;;;;;;6.20;4.60;;;;;;;14.45;80.27;99029.83;431052;1270;139364;-67
2023/06/30 03:22:53;;;;;;;6.60;4.80;;;;;;;16.75;75.27;99028.84;430722;1268;139288;-67
2023/06/30 03:33:17;;;;;;;9.10;4.50;;;;;;;18.11;71.72;99027.11;430916;1272;139938;-67
2023/06/30 03:43:41;;;;;;;6.30;5.30;;;;;;;19.10;67.67;99018.19;430745;1270;139614;-66
2023/06/30 03:54:05;;;;;;;6.70;5.30;;;;;;;18.22;67.21;99024.14;430925;1271;139224;-66
2023/06/30 04:04:32;;;;;;;10.70;5.80;;;;;;;21.07;67.45;99022.20;430725;1267;139977;-67
2023/06/30 04:14:57;;;;;;;14.20;5.10;;;;;;;26.62;59.28;99019.25;431209;1271;140698;-68
2023/06/30 04:25:21;;;;;;;4.30;3.90;;;;;;;30.02;51.63;99016.24;431262;1268;139863;-68
2023/06/30 04:35:46;;;;;;;5.70;4.30;;;;;;;33.18;45.68;99000.27;430764;1270;138405;-67
2023/06/30 04:46:10;;;;;;;6.70;3.20;;;;;;;35.97;40.29;98998.33;430784;1267;138752;-67
2023/06/30 04:56:35;;;;;;;7.40;4.00;;;;;;;38.54;36.13;98991.70;430848;1271;139748;-66
2023/06/30 05:06:59;;;;;;;3.70;3.10;;;;;;;41.32;32.65;98983.33;430927;1267;139394;-67
2023/06/30 05:17:23;;;;;;;6.00;4.00;;;;;;;44.16;29.01;98976.87;431402;1267;138783;-68
2023/06/30 05:27:47;;;;;;;3.10;2.80;;;;;;;46.22;25.99;98975.17;430742;1270;139026;-67
2023/06/30 05:38:11;;;;;;;8.90;3.00;;;;;;;47.48;23.78;98970.69;430961;1267;139248;-67
2023/06/30 05:48:35;;;;;;;3.30;2.50;;;;;;;48.12;22.59;98968.84;430740;1268;139261;-66
2023/06/30 05:58:59;;;;;;;3.60;2.80;;;;;;;48.03;21.82;98974.00;430659;1268;139915;-67
2023/06/30 06:09:23;;;;;;;3.40;2.80;;;;;;;46.08;21.78;98970.80;430561;1268;139103;-70
2023/06/30 06:19:48;;;;;;;1.80;1.70;;;;;;;44.18;21.83;98972.33;430696;1267;139411;-67
2023/06/30 06:30:13;;;;;;;3.50;2.30;;;;;;;40.62;23.55;98964.56;430568;1272;139810;-68
2023/06/30 06:40:37;;;;;;;3.40;2.20;;;;;;;38.17;25.69;98964.08;430991;1267;138833;-67
2023/06/30 06:51:03;;;;;;;8.10;2.00;;;;;;;35.84;27.12;98965.92;430604;1267;138621;-69
2023/06/30 07:01:27;;;;;;;4.40;2.50;;;;;;;33.23;29.08;98968.45;430803;1267;139299;-69
2023/06/30 07:11:51;;;;;;;3.30;2.00;;;;;;;31.48;31.25;98971.31;431664;1268;138534;-67
2023/06/30 07:22:15;;;;;;;13.00;3.50;;;;;;;30.51;32.90;98973.17;431917;1268;139356;-67
2023/06/30 07:32:39;;;;;;;3.70;2.00;;;;;;;29.56;33.85;98969.27;430880;1268;162065;-66
2023/06/30 07:43:04;;;;;;;5.40;2.30;;;;;;;31.15;33.66;98956.54;431166;1267;140422;-71
2023/06/30 07:53:28;;;;;;;3.40;2.20;;;;;;;31.47;32.85;98953.05;431392;1272;138756;-70
2023/06/30 08:03:52;;;;;;;4.40;2.40;;;;;;;30.76;33.19;98948.47;430970;1268;138979;-68
2023/06/30 08:14:16;;;;;;;3.10;1.60;;;;;;;30.77;33.47;98938.98;431200;1270;139227;-69
2023/06/30 08:24:41;;;;;;;5.90;1.90;;;;;;;31.86;32.41;98931.12;431135;1267;138627;-69
2023/06/30 08:35:06;;;;;;;5.90;3.20;;;;;;;32.87;31.96;98920.91;431336;1273;140765;-71
2023/06/30 08:45:30;;;;;;;1.50;1.20;;;;;;;34.17;30.69;98916.39;432026;1267;141023;-71
2023/06/30 08:55:54;;;;;;;9.60;1.90;;;;;;;35.21;29.05;98913.27;431903;1273;138812;-67
2023/06/30 09:06:19;;;;;;;6.90;2.30;;;;;;;35.24;28.60;98914.60;432223;1267;139886;-67
2023/06/30 09:16:43;;;;;;;1.70;1.10;;;;;;;33.76;28.81;98928.13;431738;1268;139405;-68
2023/06/30 09:27:08;;;;;;;4.00;1.40;;;;;;;33.06;29.92;98919.74;432442;1268;139080;-74
2023/06/30 09:37:40;;;;;;;1.40;1.00;;;;;;;33.23;29.86;98915.05;434207;1271;138386;-72
2023/06/30 09:48:10;;;;;;;3.40;1.50;;;;;;;33.38;29.61;98903.65;432564;1268;138779;-67
2023/06/30 09:58:35;;;;;;;1.70;1.60;;;;;;;32.81;29.51;98900.02;432313;1271;139387;-71
2023/06/30 10:09:01;;;;;;;2.60;1.70;;;;;;;32.18;29.79;98885.33;435017;1267;139969;-68
2023/06/30 10:19:27;;;;;;;6.00;2.50;;;;;;;31.70;30.57;98879.67;434597;1271;138444;-68
2023/06/30 10:29:52;;;;;;;3.70;1.60;;;;;;;31.65;30.86;98873.40;431032;1272;138973;-67
2023/06/30 10:40:27;;;;;;;1.80;1.30;;;;;;;31.83;30.55;98869.79;430747;1272;138670;-66
2023/06/30 10:50:54;;;;;;;3.80;1.70;;;;;;;31.62;31.28;98855.13;430475;1272;140963;-63
2023/06/30 11:01:18;;;;;;;3.90;2.00;;;;;;;31.47;31.54;98847.00;431170;1272;139301;-63
2023/06/30 11:11:49;;;;;;;1.10;1.10;;;;;;;31.50;31.67;98837.94;430691;1272;139281;-71
2023/06/30 11:22:23;;;;;;;2.60;1.50;;;;;;;31.58;31.40;98827.60;431775;1270;139875;-62
2023/06/30 11:32:48;;;;;;;2.20;1.70;;;;;;;31.76;31.71;98818.45;435319;1270;140305;-62
2023/06/30 11:43:12;;;;;;;2.80;1.60;;;;;;;31.98;31.35;98810.71;430745;1271;138325;-63
2023/06/30 11:53:36;;;;;;;7.70;1.80;;;;;;;31.77;31.64;98804.71;430514;1272;141213;-64
2023/06/30 12:04:33;;;;;;;2.60;1.50;;;;;;;31.64;31.86;98796.55;431321;1272;141174;-62
2023/06/30 12:14:57;;;;;;;3.50;1.30;;;;;;;31.71;31.88;98787.77;431390;1272;141073;-64
2023/06/30 12:25:26;;;;;;;2.70;1.40;;;;;;;31.86;31.84;98784.84;430969;1273;138503;-63
2023/06/30 12:35:51;;;;;;;2.50;2.40;;;;;;;31.85;31.38;98783.58;431228;1271;140640;-63
2023/06/30 12:46:14;;;;;;;1.40;1.60;;;;;;;31.74;31.48;98774.23;431282;1272;139478;-62
2023/06/30 12:56:38;;;;;;;2.80;1.70;;;;;;;31.52;31.68;98769.09;430773;1271;140655;-67
2023/06/30 13:07:02;;;;;;;1.60;1.30;;;;;;;31.44;32.13;98764.20;430795;1272;139505;-62
2023/06/30 13:17:27;;;;;;;3.10;1.40;;;;;;;31.63;32.41;98756.29;430505;1271;140875;-63
2023/06/30 13:27:51;;;;;;;2.10;1.70;;;;;;;31.70;32.36;98746.41;430611;1271;140711;-63
2023/06/30 13:38:15;;;;;;;2.50;2.30;;;;;;;30.96;32.45;98749.49;430072;1270;138893;-63
2023/06/30 13:48:40;;;;;;;3.20;1.30;;;;;;;30.16;33.28;98743.80;431483;1273;141183;-64
2023/06/30 13:59:04;;;;;;;4.60;2.30;;;;;;;29.56;34.29;98735.42;430808;1272;138742;-69
2023/06/30 14:09:28;;;;;;;2.90;1.60;;;;;;;28.81;35.21;98726.83;430770;1270;139608;-66
2023/06/30 14:19:52;;;;;;;3.30;2.30;;;;;;;28.15;36.21;98719.86;431214;1273;139088;-64
2023/06/30 14:30:17;;;;;;;4.70;2.00;;;;;;;27.57;37.13;98712.32;430857;1270;139044;-63
2023/06/30 14:40:41;;;;;;;3.30;2.50;;;;;;;27.14;38.07;98707.09;431117;1272;139008;-61
2023/06/30 14:51:05;;;;;;;3.90;2.80;;;;;;;26.76;39.05;98711.33;431181;1272;138961;-62
2023/06/30 15:01:30;;;;;;;6.20;3.10;;;;;;;26.46;39.84;98703.52;431697;1272;138642;-66
2023/06/30 15:11:54;;;;;;;9.00;3.40;;;;;;;26.25;40.70;98694.02;431927;1273;138521;-68
2023/06/30 15:22:18;;;;;;;4.60;2.50;;;;;;;26.09;41.37;98695.89;430914;1272;138927;-67
2023/06/30 15:32:42;;;;;;;5.60;3.10;;;;;;;26.24;41.77;98692.81;431628;1267;140274;-67
2023/06/30 15:43:07;;;;;;;4.00;1.80;;;;;;;26.48;41.59;98684.46;431625;1270;139833;-67
2023/06/30 15:53:32;;;;;;;9.80;2.80;;;;;;;26.54;41.56;98677.42;431276;1272;138950;-67
2023/06/30 16:03:56;;;;;;;5.70;2.90;;;;;;;26.48;41.90;98666.61;431441;1268;139953;-66
2023/06/30 16:14:21;;;;;;;12.60;5.60;;;;;;;26.08;42.69;98657.67;431163;1270;139781;-66
2023/06/30 16:24:45;;;;;;;6.40;3.30;;;;;;;25.75;43.65;98650.50;430895;1269;138603;-66
2023/06/30 16:35:10;;;;;;;4.20;3.60;;;;;;;25.34;44.78;98650.94;430873;1272;139729;-66
2023/06/30 16:45:34;;;;;;;7.50;5.00;;;;;;;25.04;45.91;98652.09;431067;1267;139498;-66
2023/06/30 16:56:00;;;;;;;4.20;2.40;;;;;;;24.79;46.30;98654.27;430307;1272;139257;-64
2023/06/30 17:06:25;;;;;;;5.80;3.20;;;;;;;24.58;46.96;98658.36;430931;1270;138686;-67
2023/06/30 17:16:49;;;;;;;4.40;3.40;;;;;;;24.53;48.00;98662.72;430258;1268;140272;-65
2023/06/30 17:27:14;;;;;;;2.60;2.40;;;;;;;24.32;48.71;98673.55;430689;1270;139213;-65
2023/06/30 17:37:39;;;;;;;10.60;3.70;;;;;;;24.08;50.10;98683.91;431586;1272;138966;-65
2023/06/30 17:48:03;;;;;;;5.10;3.60;;;;;;;23.60;51.89;98700.11;431308;1267;140443;-65
2023/06/30 17:58:27;;;;;;;3.70;3.10;;;;;;;22.85;54.90;98715.70;431111;1270;140264;-65
2023/06/30 18:08:52;;;;;;;3.90;2.90;;;;;;;21.99;57.55;98731.40;431401;1272;139660;-65
2023/06/30 18:19:18;;;;;;;3.70;3.00;;;;;;;21.38;59.65;98724.14;431298;1272;138808;-65
2023/06/30 18:29:41;;;;;;;3.80;3.30;;;;;;;21.03;61.31;98729.44;431835;1272;141398;-65
2023/06/30 18:40:19;;;;;;;7.70;3.50;;;;;;;20.86;62.88;98725.75;431197;1267;140776;-65
2023/06/30 18:50:43;;;;;;;4.00;3.40;;;;;;;20.66;63.52;98728.00;431122;1267;140851;-65
2023/06/30 19:01:10;;;;;;;7.30;4.10;;;;;;;20.48;64.63;98738.96;431722;1272;141880;-66
2023/06/30 19:11:34;;;;;;;10.10;4.30;;;;;;;20.26;65.35;98750.80;431148;1270;140399;-65
2023/06/30 19:21:58;;;;;;;4.10;3.50;;;;;;;20.09;66.27;98756.36;431708;1268;140339;-67
2023/06/30 19:32:22;;;;;;;4.30;4.00;;;;;;;19.84;66.69;98759.95;431265;1272;181533;-65
2023/06/30 19:42:47;;;;;;;4.60;4.20;;;;;;;19.67;67.61;98768.23;431621;1267;139743;-65
2023/06/30 19:53:12;;;;;;;4.90;3.40;;;;;;;19.57;67.97;98775.08;431789;1272;139640;-66
2023/06/30 20:03:36;;;;;;;5.30;4.20;;;;;;;19.65;67.76;98774.23;431767;1267;140460;-66
2023/06/30 20:14:01;;;;;;;5.10;4.60;;;;;;;19.58;67.87;98770.92;431916;1267;141134;-65
2023/06/30 20:24:29;;;;;;;5.70;5.20;;;;;;;19.40;68.74;98772.92;432080;1272;139411;-66
2023/06/30 20:34:53;;;;;;;5.60;5.10;;;;;;;19.22;69.78;98775.83;432537;1272;139877;-66
2023/06/30 20:45:17;;;;;;;5.00;4.40;;;;;;;19.12;70.82;98782.49;431827;1268;139292;-65
2023/06/30 20:55:42;;;;;;;5.20;4.70;;;;;;;18.97;71.83;98783.45;433412;1272;139091;-66
2023/06/30 21:06:06;;;;;;;5.60;5.10;;;;;;;18.82;72.74;98782.96;432647;1268;140150;-66
2023/06/30 21:16:31;;;;;;;6.40;5.80;;;;;;;18.63;73.70;98780.02;432287;1269;140103;-66
2023/06/30 21:26:55;;;;;;;7.00;6.20;;;;;;;18.50;75.00;98773.64;431631;1272;140141;-66
2023/06/30 21:37:19;;;;;;;6.10;5.60;;;;;;;18.34;75.89;98768.67;431077;1271;139850;-66
2023/06/30 21:47:43;;;;;;;6.40;5.80;;;;;;;18.29;76.92;98758.37;431489;1267;140999;-65
2023/06/30 21:58:09;;;;;;;6.70;6.10;;;;;;;18.23;77.70;98751.12;431783;1267;140836;-65
2023/06/30 22:08:50;;;;;;;7.40;6.50;;;;;;;18.06;78.29;98749.04;431815;1267;139632;-66
2023/06/30 22:19:18;;;;;;;8.00;7.20;;;;;;;18.02;79.39;98747.86;432033;1267;140289;-65
2023/06/30 22:29:42;;;;;;;8.80;7.40;;;;;;;18.01;80.10;98740.55;432463;1267;140059;-66
2023/06/30 22:40:09;;;;;;;7.70;7.10;;;;;;;17.93;80.51;98730.04;431258;1268;139852;-66
2023/06/30 22:50:32;;;;;;;7.60;6.90;;;;;;;17.84;81.10;98728.58;431352;1267;140695;-67
2023/06/30 23:00:56;;;;;;;8.20;7.40;;;;;;;17.72;81.25;98714.73;431243;1272;139523;-65
2023/06/30 23:11:20;;;;;;;8.70;7.90;;;;;;;17.68;81.57;98707.80;431256;1272;140292;-65
2023/06/30 23:21:45;;;;;;;8.30;7.20;;;;;;;17.61;81.56;98699.25;431084;1272;140911;-64
2023/06/30 23:32:09;;;;;;;9.50;8.60;;;;;;;17.56;81.81;98700.37;432069;1267;139742;-73
2023/06/30 23:42:33;;;;;;;8.20;7.40;;;;;;;17.54;81.81;98695.79;432733;1272;140085;-63
2023/06/30 23:52:57;;;;;;;8.00;7.30;;;;;;;17.48;81.90;98704.08;432450;1267;141189;-63
